Time;durP1;ratioP1;P1;durP2;ratioP2;P2;SDS_P1;SDS_P2;PMS_P1;PMS_P2;Temp;Humidity;BMP_temperature;BMP_pressure;BME280_temperature;BME280_humidity;BME280_pressure;Samples;Min_cycle;Max_cycle;Signal;HPM_P1;HPM_P2
2021/08/10 00:01:56;;;;;;;4.55;2.85;;;;;;;14.47;nan;101853.19;6299080;22;20096;-47
2021/08/10 00:04:22;;;;;;;6.22;2.67;;;;;;;14.42;nan;101859.31;6299912;22;20030;-47
2021/08/10 00:06:48;;;;;;;5.28;2.85;;;;;;;14.38;nan;101854.66;6298665;22;20438;-47
2021/08/10 00:09:13;;;;;;;4.65;2.70;;;;;;;14.36;nan;101856.75;6299475;22;20029;-47
2021/08/10 00:11:39;;;;;;;4.18;2.80;;;;;;;14.34;nan;101865.09;6286025;22;20004;-47
2021/08/10 00:14:04;;;;;;;6.32;3.30;;;;;;;14.30;nan;101857.75;6236733;23;20468;-48
2021/08/10 00:16:30;;;;;;;3.90;2.90;;;;;;;14.25;nan;101849.59;6237151;23;20003;-47
2021/08/10 00:18:55;;;;;;;6.03;2.92;;;;;;;14.16;nan;101852.69;6237529;23;20010;-47
2021/08/10 00:21:21;;;;;;;6.63;2.55;;;;;;;14.10;nan;101845.56;6236992;22;20031;-46
2021/08/10 00:23:46;;;;;;;5.30;2.63;;;;;;;14.06;nan;101852.53;6237865;23;20008;-47
2021/08/10 00:26:13;;;;;;;3.95;2.50;;;;;;;14.03;nan;101842.25;6236492;23;20420;-49
2021/08/10 00:28:39;;;;;;;3.80;2.28;;;;;;;13.95;nan;101839.94;6238078;23;20395;-47
2021/08/10 00:31:04;;;;;;;3.42;2.35;;;;;;;13.90;nan;101845.25;6237381;23;20010;-47
2021/08/10 00:33:31;;;;;;;3.50;2.17;;;;;;;13.88;nan;101836.59;6237993;22;20224;-47
2021/08/10 00:35:58;;;;;;;6.13;2.50;;;;;;;13.82;nan;101843.78;6237430;23;20054;-47
2021/08/10 00:38:24;;;;;;;6.03;3.10;;;;;;;13.71;nan;101844.66;6238622;23;20484;-48
2021/08/10 00:40:50;;;;;;;6.20;3.33;;;;;;;13.68;nan;101838.94;6212093;23;20030;-47
2021/08/10 00:43:34;;;;;;;3.70;2.65;;;;;;;13.58;nan;101829.59;6212488;23;20009;-47
2021/08/10 00:46:04;;;;;;;6.07;3.73;;;;;;;13.52;nan;101838.66;6239074;23;20377;-47
2021/08/10 00:48:30;;;;;;;8.75;5.85;;;;;;;13.31;nan;101844.72;6239756;23;20231;-46
2021/08/10 00:50:56;;;;;;;9.88;5.68;;;;;;;13.23;nan;101850.44;6239439;23;20438;-47
2021/08/10 00:53:22;;;;;;;12.15;5.97;;;;;;;13.17;nan;101854.06;6239354;22;20010;-46
2021/08/10 00:55:48;;;;;;;11.30;5.88;;;;;;;13.21;nan;101855.25;6238222;23;20140;-46
2021/08/10 00:58:14;;;;;;;6.22;4.70;;;;;;;13.29;nan;101853.03;6239764;23;20399;-46
2021/08/10 01:00:40;;;;;;;5.63;4.00;;;;;;;13.34;nan;101846.91;6238784;23;20008;-48
2021/08/10 01:03:06;;;;;;;7.30;4.13;;;;;;;13.33;nan;101857.91;6238668;22;20003;-46
2021/08/10 01:05:32;;;;;;;9.75;5.25;;;;;;;13.28;nan;101862.16;6238942;23;20077;-47
2021/08/10 01:08:03;;;;;;;12.07;6.10;;;;;;;13.30;nan;101861.91;6239271;23;20011;-47
2021/08/10 01:10:35;;;;;;;6.72;4.20;;;;;;;13.38;nan;101850.75;6239344;23;20109;-47
2021/08/10 01:13:06;;;;;;;11.73;4.50;;;;;;;13.42;nan;101857.28;6228416;23;20050;-46
2021/08/10 01:16:14;;;;;;;9.18;4.32;;;;;;;13.43;nan;101869.69;6239321;23;20085;-46
2021/08/10 01:18:54;;;;;;;7.28;4.78;;;;;;;13.34;nan;101871.13;6218219;23;20016;-46
2021/08/10 01:21:25;;;;;;;5.18;3.72;;;;;;;13.38;nan;101866.91;6238858;22;20471;-49
2021/08/10 01:24:02;;;;;;;10.68;5.68;;;;;;;13.34;nan;101865.75;6238544;22;20000;-46
2021/08/10 01:26:30;;;;;;;6.53;4.95;;;;;;;13.32;nan;101865.19;6239032;22;20000;-47
2021/08/10 01:29:20;;;;;;;9.30;4.32;;;;;;;13.29;nan;101860.28;6239131;22;20011;-47
2021/08/10 01:31:48;;;;;;;3.65;3.33;;;;;;;13.31;nan;101855.47;6238964;22;20004;-46
2021/08/10 01:34:32;;;;;;;5.03;2.90;;;;;;;13.21;nan;101857.94;6239170;23;20228;-47
2021/08/10 01:37:02;;;;;;;6.35;3.95;;;;;;;13.19;nan;101857.38;6238902;23;20008;-46
2021/08/10 01:39:30;;;;;;;8.75;5.38;;;;;;;13.19;nan;101857.38;6238742;22;20004;-47
2021/08/10 01:41:58;;;;;;;10.27;4.28;;;;;;;13.20;nan;101856.31;6238383;22;20004;-48
2021/08/10 01:44:27;;;;;;;9.20;6.40;;;;;;;13.14;nan;101859.94;6238766;23;20170;-48
2021/08/10 01:46:54;;;;;;;9.30;6.60;;;;;;;13.08;nan;101860.88;6238676;22;20000;-47
2021/08/10 01:49:23;;;;;;;8.27;5.70;;;;;;;13.12;nan;101853.97;6238463;22;20004;-46
2021/08/10 01:51:51;;;;;;;6.10;4.60;;;;;;;13.12;nan;101854.78;6238479;22;20247;-47
2021/08/10 01:54:17;;;;;;;8.57;4.45;;;;;;;13.10;nan;101856.06;6237268;23;20456;-47
2021/08/10 01:56:43;;;;;;;5.15;3.42;;;;;;;13.02;nan;101847.31;6238766;22;20496;-46
2021/08/10 01:59:09;;;;;;;4.68;3.20;;;;;;;12.96;nan;101850.97;6238996;22;20032;-46
2021/08/10 02:01:38;;;;;;;5.15;3.35;;;;;;;12.92;nan;101846.28;6238579;22;20079;-47
2021/08/10 02:04:05;;;;;;;5.07;2.97;;;;;;;12.85;nan;101857.16;6237941;23;20499;-47
2021/08/10 02:06:31;;;;;;;4.05;2.85;;;;;;;12.82;nan;101857.66;6237709;22;20008;-47
2021/08/10 02:08:59;;;;;;;4.35;3.00;;;;;;;12.79;nan;101855.44;6237627;23;20084;-46
2021/08/10 02:11:26;;;;;;;4.53;2.70;;;;;;;12.76;nan;101858.59;6240145;22;20004;-46
2021/08/10 02:13:53;;;;;;;4.30;3.38;;;;;;;12.74;nan;101851.78;6269091;22;20423;-46
2021/08/10 02:16:19;;;;;;;7.90;3.75;;;;;;;12.66;nan;101852.97;6268072;22;20431;-48
2021/08/10 02:18:47;;;;;;;5.15;3.15;;;;;;;12.60;nan;101853.94;6269093;22;20004;-46
2021/08/10 02:21:24;;;;;;;7.63;4.18;;;;;;;12.57;nan;101854.41;6268624;22;20190;-47
2021/08/10 02:23:53;;;;;;;5.00;3.70;;;;;;;12.59;nan;101860.34;6268206;22;20004;-47
2021/08/10 02:26:20;;;;;;;9.82;4.13;;;;;;;12.61;nan;101856.38;6268733;22;20010;-48
2021/08/10 02:28:47;;;;;;;5.45;3.45;;;;;;;12.66;nan;101869.13;6268115;22;20075;-47
2021/08/10 02:31:13;;;;;;;5.25;3.00;;;;;;;12.63;nan;101858.84;6268880;22;20011;-47
2021/08/10 02:33:39;;;;;;;4.18;3.10;;;;;;;12.60;nan;101868.19;6268834;22;20009;-47
2021/08/10 02:36:05;;;;;;;4.13;3.15;;;;;;;12.59;nan;101868.44;6268612;22;20535;-47
2021/08/10 02:38:33;;;;;;;4.93;3.60;;;;;;;12.56;nan;101869.69;6268956;22;20190;-49
2021/08/10 02:40:59;;;;;;;4.88;3.15;;;;;;;12.52;nan;101873.09;6268574;22;20004;-50
2021/08/10 02:43:27;;;;;;;5.78;3.45;;;;;;;12.47;nan;101864.91;6268641;22;20467;-46
2021/08/10 02:45:53;;;;;;;6.43;3.55;;;;;;;12.45;nan;101867.84;6266685;22;20074;-46
2021/08/10 02:48:20;;;;;;;3.55;2.50;;;;;;;12.44;nan;101860.00;6268012;22;20015;-47
2021/08/10 02:50:47;;;;;;;3.42;2.60;;;;;;;12.40;nan;101855.09;6268856;22;19999;-47
2021/08/10 02:53:13;;;;;;;5.45;2.08;;;;;;;12.34;nan;101857.88;6266888;22;20045;-47
2021/08/10 02:55:45;;;;;;;3.47;2.65;;;;;;;12.29;nan;101863.13;6268494;22;20423;-46
2021/08/10 02:58:24;;;;;;;4.85;2.90;;;;;;;12.21;nan;101858.09;6268651;22;20048;-47
2021/08/10 03:00:58;;;;;;;3.22;2.40;;;;;;;12.19;nan;101858.31;6268589;22;20133;-47
2021/08/10 03:03:27;;;;;;;4.33;2.63;;;;;;;12.17;nan;101852.38;6269026;22;20003;-47
2021/08/10 03:05:56;;;;;;;7.10;3.10;;;;;;;12.20;nan;101843.03;6268252;22;20212;-47
2021/08/10 03:08:26;;;;;;;13.38;3.90;;;;;;;12.24;nan;101845.03;6267709;22;20008;-48
2021/08/10 03:10:55;;;;;;;7.03;3.60;;;;;;;12.23;nan;101843.41;6268470;22;20658;-48
2021/08/10 03:13:23;;;;;;;5.82;3.50;;;;;;;12.28;nan;101840.81;6268334;22;20003;-47
2021/08/10 03:15:52;;;;;;;4.28;3.45;;;;;;;12.31;nan;101837.66;6267349;22;20404;-47
2021/08/10 03:18:20;;;;;;;7.35;4.63;;;;;;;12.31;nan;101829.59;6268453;22;20552;-50
2021/08/10 03:20:46;;;;;;;5.78;3.88;;;;;;;12.42;nan;101840.59;6268859;22;20027;-47
2021/08/10 03:23:14;;;;;;;6.18;4.20;;;;;;;12.40;nan;101838.97;6267740;22;20011;-47
2021/08/10 03:25:43;;;;;;;7.75;5.57;;;;;;;12.36;nan;101837.78;6268730;22;20003;-47
2021/08/10 03:28:10;;;;;;;7.38;4.65;;;;;;;12.48;nan;101842.34;6268748;22;20423;-47
2021/08/10 03:30:39;;;;;;;6.60;4.32;;;;;;;12.48;nan;101836.97;6240647;22;20331;-48
2021/08/10 03:33:05;;;;;;;6.82;4.03;;;;;;;12.52;nan;101846.19;6267829;22;20008;-47
2021/08/10 03:35:30;;;;;;;8.52;5.03;;;;;;;12.54;nan;101847.59;6268009;22;20010;-48
2021/08/10 03:37:56;;;;;;;8.98;6.78;;;;;;;12.42;nan;101854.88;6268489;22;19996;-48
2021/08/10 03:40:22;;;;;;;8.60;6.65;;;;;;;12.42;nan;101848.66;6268588;22;20053;-48
2021/08/10 03:42:49;;;;;;;11.10;6.75;;;;;;;12.47;nan;101857.66;6268510;22;20027;-48
2021/08/10 03:45:16;;;;;;;11.30;7.43;;;;;;;12.55;nan;101845.72;6267638;22;20007;-47
2021/08/10 03:47:42;;;;;;;9.98;7.18;;;;;;;12.55;nan;101851.09;6268331;22;20007;-47
2021/08/10 03:50:09;;;;;;;9.13;6.75;;;;;;;12.59;nan;101852.28;6268145;22;20012;-47
2021/08/10 03:52:35;;;;;;;11.32;6.13;;;;;;;12.60;nan;101846.69;6268356;22;20026;-49
2021/08/10 03:55:03;;;;;;;10.13;6.45;;;;;;;12.65;nan;101843.28;6267986;22;20428;-49
2021/08/10 03:57:31;;;;;;;9.80;6.05;;;;;;;12.65;nan;101840.59;6268269;22;20335;-48
2021/08/10 03:59:59;;;;;;;8.88;5.75;;;;;;;12.68;nan;101848.19;6267342;22;20012;-47
2021/08/10 04:02:25;;;;;;;8.00;5.90;;;;;;;12.68;nan;101846.31;6267896;22;19999;-49
2021/08/10 04:04:54;;;;;;;7.75;6.43;;;;;;;12.73;nan;101850.16;6268152;22;20151;-50
2021/08/10 04:07:20;;;;;;;9.90;5.90;;;;;;;12.74;nan;101849.91;6268883;22;20000;-47
2021/08/10 04:09:46;;;;;;;8.85;5.95;;;;;;;12.78;nan;101844.91;6268212;22;20007;-48
2021/08/10 04:12:12;;;;;;;7.10;4.90;;;;;;;12.81;nan;101858.69;6267490;22;20014;-48
2021/08/10 04:14:41;;;;;;;8.18;5.32;;;;;;;12.81;nan;101856.00;6268977;22;20011;-47
2021/08/10 04:17:07;;;;;;;10.27;5.03;;;;;;;12.86;nan;101858.00;6269933;22;20005;-47
2021/08/10 04:19:36;;;;;;;10.63;5.63;;;;;;;12.94;nan;101855.75;6270171;22;20068;-48
2021/08/10 04:22:03;;;;;;;9.00;5.78;;;;;;;13.01;nan;101850.25;6269855;22;20075;-48
2021/08/10 04:24:29;;;;;;;14.68;6.53;;;;;;;13.05;nan;101846.03;6270326;22;20442;-48
2021/08/10 04:26:55;;;;;;;14.35;7.40;;;;;;;13.11;nan;101852.34;6242395;22;20050;-47
2021/08/10 04:29:21;;;;;;;12.90;8.25;;;;;;;13.19;nan;101852.00;6268138;22;20488;-47
2021/08/10 04:31:47;;;;;;;10.80;7.15;;;;;;;13.27;nan;101848.91;6267745;22;20038;-47
2021/08/10 04:34:13;;;;;;;11.40;8.65;;;;;;;13.42;nan;101848.41;6269356;22;20487;-49
2021/08/10 04:36:38;;;;;;;10.23;7.80;;;;;;;13.49;nan;101838.31;6268876;22;20003;-48
2021/08/10 04:39:04;;;;;;;8.88;6.97;;;;;;;13.56;nan;101831.72;6268634;22;20424;-48
2021/08/10 04:41:30;;;;;;;8.32;6.28;;;;;;;13.66;nan;101836.47;6268666;22;20420;-48
2021/08/10 04:43:55;;;;;;;6.80;5.25;;;;;;;13.77;nan;101824.00;6268300;22;20006;-48
2021/08/10 04:46:23;;;;;;;8.38;4.93;;;;;;;13.86;nan;101819.84;6268100;22;20424;-48
2021/08/10 04:48:49;;;;;;;8.07;5.20;;;;;;;14.00;nan;101820.34;6267953;22;20082;-47
2021/08/10 04:51:14;;;;;;;10.38;5.30;;;;;;;14.11;nan;101827.53;6266619;22;20487;-48
2021/08/10 04:53:41;;;;;;;9.45;4.72;;;;;;;14.24;nan;101831.78;6266652;22;20205;-47
2021/08/10 04:56:06;;;;;;;6.28;4.85;;;;;;;14.28;nan;101833.72;6266052;22;20003;-47
2021/08/10 04:58:32;;;;;;;8.05;5.63;;;;;;;14.37;nan;101836.84;6266636;22;20458;-47
2021/08/10 05:00:58;;;;;;;9.30;5.13;;;;;;;14.50;nan;101844.59;6265640;22;20012;-47
2021/08/10 05:03:23;;;;;;;7.45;5.13;;;;;;;14.62;nan;101839.94;6267278;22;20309;-47
2021/08/10 05:05:49;;;;;;;7.15;4.25;;;;;;;14.67;nan;101840.00;6266524;22;20004;-48
2021/08/10 05:08:15;;;;;;;9.02;4.50;;;;;;;14.71;nan;101838.44;6264180;22;20008;-47
2021/08/10 05:10:44;;;;;;;5.05;4.32;;;;;;;14.63;nan;101835.34;6266933;22;20000;-47
2021/08/10 05:13:10;;;;;;;8.77;5.07;;;;;;;14.64;nan;101832.41;6267190;22;20007;-48
2021/08/10 05:15:36;;;;;;;8.55;4.90;;;;;;;14.73;nan;101830.94;6268513;22;20000;-48
2021/08/10 05:18:01;;;;;;;4.95;4.07;;;;;;;14.96;nan;101839.84;6268162;22;20487;-48
2021/08/10 05:20:27;;;;;;;8.52;4.65;;;;;;;15.05;nan;101838.31;6267997;22;20011;-47
2021/08/10 05:22:52;;;;;;;7.43;4.80;;;;;;;15.01;nan;101835.31;6268207;22;20006;-48
2021/08/10 05:25:18;;;;;;;9.40;4.63;;;;;;;15.19;nan;101834.19;6267837;22;20010;-48
2021/08/10 05:27:43;;;;;;;6.30;3.95;;;;;;;15.39;nan;101822.78;6241602;22;19999;-48
2021/08/10 05:30:10;;;;;;;10.73;4.00;;;;;;;15.42;nan;101822.28;6272677;22;20004;-48
2021/08/10 05:32:36;;;;;;;6.90;4.72;;;;;;;15.50;nan;101827.25;6269781;22;20002;-47
2021/08/10 05:35:01;;;;;;;4.97;4.05;;;;;;;15.39;nan;101828.19;6268312;22;20101;-48
2021/08/10 05:37:27;;;;;;;6.88;4.20;;;;;;;15.66;nan;101830.94;6268836;22;20000;-47
2021/08/10 05:39:52;;;;;;;6.18;3.97;;;;;;;15.81;nan;101827.59;6270103;22;20006;-47
2021/08/10 05:42:17;;;;;;;7.22;3.75;;;;;;;15.85;nan;101818.69;6269498;22;20308;-47
2021/08/10 05:44:43;;;;;;;4.95;3.85;;;;;;;16.00;nan;101823.41;6269263;22;20035;-48
2021/08/10 05:47:08;;;;;;;7.88;3.95;;;;;;;15.97;nan;101834.72;6268309;22;20421;-48
2021/08/10 05:49:34;;;;;;;8.10;4.10;;;;;;;16.11;nan;101827.00;6269319;22;20007;-47
2021/08/10 05:51:59;;;;;;;9.82;3.85;;;;;;;16.11;nan;101827.00;6268321;22;20023;-49
2021/08/10 05:54:25;;;;;;;4.78;2.90;;;;;;;16.28;nan;101827.66;6268772;22;20015;-49
2021/08/10 05:56:50;;;;;;;4.57;3.65;;;;;;;16.33;nan;101823.09;6268829;22;20006;-47
2021/08/10 05:59:16;;;;;;;3.65;2.95;;;;;;;16.54;nan;101824.06;6268594;22;20038;-48
2021/08/10 06:01:42;;;;;;;4.68;3.05;;;;;;;16.63;nan;101819.78;6267660;22;20011;-47
2021/08/10 06:04:07;;;;;;;5.90;3.65;;;;;;;16.68;nan;101823.63;6268724;22;20466;-48
2021/08/10 06:06:34;;;;;;;6.68;3.33;;;;;;;16.53;nan;101827.03;6268596;22;20000;-48
2021/08/10 06:09:00;;;;;;;3.80;3.13;;;;;;;16.83;nan;101821.81;6267924;22;20031;-48
2021/08/10 06:11:26;;;;;;;8.43;3.60;;;;;;;16.92;nan;101825.66;6267900;22;20250;-48
2021/08/10 06:13:51;;;;;;;4.18;3.40;;;;;;;16.87;nan;101828.31;6267542;22;20061;-47
2021/08/10 06:16:17;;;;;;;7.80;3.70;;;;;;;16.89;nan;101809.94;6266210;22;20142;-47
2021/08/10 06:18:42;;;;;;;6.15;3.17;;;;;;;16.86;nan;101820.47;6266884;22;20509;-48
2021/08/10 06:21:08;;;;;;;9.10;3.03;;;;;;;16.74;nan;101817.16;6266542;22;20008;-47
2021/08/10 06:23:34;;;;;;;4.93;3.40;;;;;;;16.96;nan;101814.28;6267101;22;20000;-47
2021/08/10 06:25:59;;;;;;;5.57;3.38;;;;;;;16.97;nan;101811.31;6267410;22;19996;-47
2021/08/10 06:28:25;;;;;;;6.72;3.67;;;;;;;16.96;nan;101811.59;6268677;22;20010;-46
2021/08/10 06:30:50;;;;;;;7.35;3.17;;;;;;;17.04;nan;101803.75;6268457;22;20003;-47
2021/08/10 06:33:16;;;;;;;3.70;2.75;;;;;;;17.10;nan;101807.31;6268277;22;20544;-47
2021/08/10 06:35:41;;;;;;;5.70;2.78;;;;;;;17.18;nan;101802.19;6268683;22;20109;-47
2021/08/10 06:38:06;;;;;;;4.93;2.90;;;;;;;17.60;nan;101795.78;6267715;22;20034;-47
2021/08/10 06:40:32;;;;;;;5.15;3.17;;;;;;;17.99;nan;101792.56;6269005;22;19999;-48
2021/08/10 06:42:58;;;;;;;4.75;3.00;;;;;;;18.26;nan;101795.75;6268142;22;20065;-47
2021/08/10 06:45:23;;;;;;;4.00;2.78;;;;;;;18.51;nan;101791.38;6268610;22;20005;-47
2021/08/10 06:47:51;;;;;;;5.70;2.92;;;;;;;18.53;nan;101790.03;6268441;22;20023;-48
2021/08/10 06:50:17;;;;;;;6.68;2.70;;;;;;;18.77;nan;101797.56;6268772;22;20007;-47
2021/08/10 06:52:42;;;;;;;6.00;2.83;;;;;;;18.75;nan;101794.31;6267858;22;20015;-47
2021/08/10 06:55:08;;;;;;;4.75;2.70;;;;;;;18.92;nan;101809.19;6267885;22;19999;-47
2021/08/10 06:57:33;;;;;;;4.30;2.45;;;;;;;19.10;nan;101802.31;6268209;22;20030;-48
2021/08/10 06:59:59;;;;;;;6.20;2.63;;;;;;;19.15;nan;101817.75;6267720;22;20003;-48
2021/08/10 07:02:24;;;;;;;4.10;2.58;;;;;;;19.35;nan;101822.28;6268486;22;20006;-47
2021/08/10 07:04:50;;;;;;;3.47;2.53;;;;;;;19.65;nan;101813.97;6268113;22;19999;-47
2021/08/10 07:07:15;;;;;;;3.85;2.47;;;;;;;19.94;nan;101813.22;6268109;22;20004;-47
2021/08/10 07:09:41;;;;;;;3.88;2.17;;;;;;;20.08;nan;101814.97;6268422;22;20010;-46
2021/08/10 07:12:06;;;;;;;4.85;2.38;;;;;;;19.84;nan;101812.19;6268045;22;20019;-48
2021/08/10 07:14:32;;;;;;;5.65;2.83;;;;;;;20.00;nan;101821.03;6268714;22;20057;-47
2021/08/10 07:16:57;;;;;;;4.28;2.20;;;;;;;20.38;nan;101813.06;6267693;22;20501;-48
2021/08/10 07:19:23;;;;;;;5.20;2.33;;;;;;;20.60;nan;101815.28;6241533;22;20071;-47
2021/08/10 07:21:48;;;;;;;3.42;1.92;;;;;;;20.87;nan;101820.16;6268646;22;20348;-48
2021/08/10 07:24:14;;;;;;;4.90;2.13;;;;;;;21.31;nan;101815.22;6268092;22;20031;-47
2021/08/10 07:26:40;;;;;;;2.88;1.80;;;;;;;20.91;nan;101813.84;6268042;22;20003;-47
2021/08/10 07:29:05;;;;;;;3.40;1.88;;;;;;;21.05;nan;101803.03;6267572;22;20085;-47
2021/08/10 07:31:31;;;;;;;6.00;2.55;;;;;;;21.54;nan;101801.81;6267425;22;20007;-48
2021/08/10 07:33:56;;;;;;;3.78;2.20;;;;;;;21.42;nan;101803.09;6268688;22;20003;-47
2021/08/10 07:36:22;;;;;;;4.32;2.72;;;;;;;21.53;nan;101800.19;6240835;22;20422;-48
2021/08/10 07:38:47;;;;;;;4.85;2.70;;;;;;;21.21;nan;101804.47;6268665;22;20008;-49
2021/08/10 07:41:13;;;;;;;3.38;2.08;;;;;;;21.19;nan;101812.13;6268198;22;20436;-46
2021/08/10 07:43:39;;;;;;;4.18;2.60;;;;;;;21.27;nan;101797.84;6268292;22;20431;-48
2021/08/10 07:46:05;;;;;;;5.75;2.58;;;;;;;21.63;nan;101810.94;6265259;22;20004;-49
2021/08/10 07:48:31;;;;;;;4.03;2.55;;;;;;;21.61;nan;101811.25;6269918;22;20031;-47
2021/08/10 07:50:58;;;;;;;3.97;2.40;;;;;;;21.93;nan;101810.47;6270563;22;20485;-47
2021/08/10 07:53:24;;;;;;;6.43;2.60;;;;;;;22.05;nan;101806.47;6269647;22;20082;-47
2021/08/10 07:55:51;;;;;;;6.30;2.60;;;;;;;21.97;nan;101800.56;6270309;22;20003;-47
2021/08/10 07:58:17;;;;;;;6.55;2.38;;;;;;;21.77;nan;101806.38;6270249;22;20060;-48
2021/08/10 08:00:43;;;;;;;3.70;2.45;;;;;;;21.66;nan;101804.91;6271625;22;20242;-47
2021/08/10 08:03:10;;;;;;;3.60;2.40;;;;;;;21.19;nan;101803.94;6269782;22;20003;-48
2021/08/10 08:05:36;;;;;;;6.43;2.75;;;;;;;21.35;nan;101799.91;6270157;22;20000;-49
2021/08/10 08:08:02;;;;;;;3.97;2.50;;;;;;;21.51;nan;101805.13;6268952;22;20002;-47
2021/08/10 08:10:27;;;;;;;5.22;2.05;;;;;;;21.52;nan;101814.94;6271215;22;20086;-47
2021/08/10 08:12:53;;;;;;;5.85;2.72;;;;;;;21.71;nan;101808.34;6270544;22;20096;-49
2021/08/10 08:15:18;;;;;;;5.20;2.28;;;;;;;21.63;nan;101811.75;6243137;22;20011;-47
2021/08/10 08:17:44;;;;;;;3.60;2.20;;;;;;;21.84;nan;101809.50;6270413;22;20444;-49
2021/08/10 08:20:11;;;;;;;5.22;2.80;;;;;;;21.82;nan;101808.19;6269671;22;20007;-49
2021/08/10 08:22:37;;;;;;;4.55;2.83;;;;;;;21.66;nan;101804.91;6269342;22;20006;-50
2021/08/10 08:25:03;;;;;;;4.68;2.30;;;;;;;22.08;nan;101779.38;6269301;22;20304;-47
2021/08/10 08:27:29;;;;;;;4.15;2.00;;;;;;;22.22;nan;101771.22;6270582;22;20000;-47
2021/08/10 08:29:54;;;;;;;4.65;2.30;;;;;;;21.79;nan;101771.41;6270075;22;20482;-48
2021/08/10 08:32:20;;;;;;;3.72;2.38;;;;;;;21.89;nan;101759.50;6269634;22;20060;-49
2021/08/10 08:34:45;;;;;;;6.72;2.40;;;;;;;22.33;nan;101758.19;6269797;22;20078;-50
2021/08/10 08:37:12;;;;;;;4.53;2.08;;;;;;;22.60;nan;101756.25;6268595;22;20000;-47
2021/08/10 08:39:37;;;;;;;6.07;2.20;;;;;;;22.78;nan;101762.72;6272764;22;20006;-48
2021/08/10 08:42:03;;;;;;;4.80;2.40;;;;;;;22.94;nan;101768.69;6272293;22;20408;-49
2021/08/10 08:44:34;;;;;;;3.05;2.17;;;;;;;23.20;nan;101777.16;6270042;22;20370;-49
2021/08/10 08:47:03;;;;;;;4.18;2.25;;;;;;;23.18;nan;101763.00;6268846;22;19992;-48
2021/08/10 08:49:30;;;;;;;4.28;2.03;;;;;;;22.95;nan;101769.50;6268231;22;20011;-49
2021/08/10 08:51:59;;;;;;;3.08;2.08;;;;;;;22.75;nan;101776.19;6268104;22;20007;-48
2021/08/10 08:54:25;;;;;;;3.35;2.03;;;;;;;22.67;nan;101776.91;6270610;22;20004;-48
2021/08/10 08:56:51;;;;;;;3.17;2.28;;;;;;;22.46;nan;101790.16;6270352;22;20000;-50
2021/08/10 08:59:17;;;;;;;6.82;2.38;;;;;;;22.61;nan;101782.47;6269546;22;20034;-49
2021/08/10 09:01:43;;;;;;;5.15;2.17;;;;;;;22.64;nan;101785.72;6269607;22;20104;-48
2021/08/10 09:04:09;;;;;;;4.47;2.17;;;;;;;22.54;nan;101775.78;6267094;22;20004;-47
2021/08/10 09:06:35;;;;;;;3.70;2.70;;;;;;;22.70;nan;101771.66;6240477;22;20593;-47
2021/08/10 09:09:33;;;;;;;2.38;2.10;;;;;;;22.27;nan;101766.50;6270491;22;20015;-50
2021/08/10 09:12:01;;;;;;;4.80;2.33;;;;;;;22.10;nan;101773.66;6214976;22;20461;-48
2021/08/10 09:14:46;;;;;;;4.97;2.30;;;;;;;21.90;nan;101770.16;6269862;22;20008;-48
2021/08/10 09:17:14;;;;;;;4.30;2.50;;;;;;;22.18;nan;101764.75;6269074;22;20026;-48
2021/08/10 09:19:41;;;;;;;3.80;2.20;;;;;;;22.20;nan;101768.00;6269391;22;20008;-48
2021/08/10 09:22:25;;;;;;;3.83;2.17;;;;;;;22.07;nan;101766.03;6268574;22;20003;-48
2021/08/10 09:24:51;;;;;;;4.15;2.42;;;;;;;21.93;nan;101764.09;6268456;22;20335;-47
2021/08/10 09:27:39;;;;;;;6.13;2.13;;;;;;;21.59;nan;101769.84;6267965;22;20071;-49
2021/08/10 09:30:11;;;;;;;4.00;2.53;;;;;;;21.23;nan;101774.19;6268339;22;20015;-48
2021/08/10 09:32:52;;;;;;;4.10;2.05;;;;;;;21.08;nan;101767.03;6269966;22;20003;-48
2021/08/10 09:35:18;;;;;;;5.57;2.58;;;;;;;21.15;nan;101767.47;6269051;22;20007;-48
2021/08/10 09:38:12;;;;;;;3.88;2.22;;;;;;;21.24;nan;101764.91;6269685;22;20034;-49
2021/08/10 09:40:41;;;;;;;3.50;2.42;;;;;;;21.55;nan;101759.81;6266201;22;20286;-47
2021/08/10 09:43:27;;;;;;;5.00;2.55;;;;;;;21.68;nan;101746.22;6269172;22;20007;-48
2021/08/10 09:46:22;;;;;;;5.15;2.50;;;;;;;21.80;nan;101744.94;6267554;22;20057;-47
2021/08/10 09:48:56;;;;;;;4.75;2.35;;;;;;;21.95;nan;101744.69;6269226;22;20418;-48
2021/08/10 09:51:30;;;;;;;4.40;2.42;;;;;;;21.96;nan;101730.72;6268225;22;20079;-47
2021/08/10 09:54:09;;;;;;;4.80;2.00;;;;;;;22.08;nan;101726.72;6269002;22;20049;-48
2021/08/10 09:56:45;;;;;;;4.68;2.35;;;;;;;22.16;nan;101728.75;6241760;22;19999;-48
2021/08/10 09:59:11;;;;;;;5.28;2.92;;;;;;;22.26;nan;101728.56;6267791;22;20006;-48
2021/08/10 10:01:42;;;;;;;4.40;1.90;;;;;;;21.88;nan;101739.59;6269034;22;20006;-48
2021/08/10 10:04:11;;;;;;;3.78;2.50;;;;;;;21.82;nan;101740.81;6268027;22;20348;-48
2021/08/10 10:06:38;;;;;;;3.40;2.05;;;;;;;21.48;nan;101732.13;6268139;22;19995;-48
2021/08/10 10:09:04;;;;;;;3.35;1.98;;;;;;;21.51;nan;101732.31;6268079;22;20092;-48
2021/08/10 10:11:31;;;;;;;4.45;2.20;;;;;;;21.47;nan;101730.50;6240835;22;20004;-48
2021/08/10 10:14:01;;;;;;;2.90;1.90;;;;;;;21.41;nan;101729.78;6268291;22;20053;-48
2021/08/10 10:16:28;;;;;;;2.85;2.20;;;;;;;21.57;nan;101741.25;6267914;22;20458;-49
2021/08/10 10:18:55;;;;;;;4.25;2.55;;;;;;;21.81;nan;101730.19;6267033;22;20008;-48
2021/08/10 10:21:23;;;;;;;3.97;2.28;;;;;;;21.86;nan;101732.81;6266891;22;20003;-48
2021/08/10 10:23:53;;;;;;;4.28;2.42;;;;;;;21.99;nan;101724.66;6262989;22;20007;-49
2021/08/10 10:26:21;;;;;;;2.55;2.08;;;;;;;22.23;nan;101731.88;6264531;22;20003;-49
2021/08/10 10:28:47;;;;;;;4.68;2.40;;;;;;;22.26;nan;101725.81;6262816;22;20441;-50
2021/08/10 10:31:13;;;;;;;3.42;2.20;;;;;;;22.33;nan;101720.78;6264386;22;20317;-48
2021/08/10 10:33:40;;;;;;;4.47;2.20;;;;;;;22.31;nan;101728.47;6261989;22;20021;-49
2021/08/10 10:36:05;;;;;;;5.53;2.35;;;;;;;22.20;nan;101732.50;6263238;22;20078;-49
2021/08/10 10:38:31;;;;;;;4.20;2.08;;;;;;;22.44;nan;101727.66;6263401;22;20042;-47
2021/08/10 10:40:59;;;;;;;5.07;2.40;;;;;;;22.68;nan;101721.16;6266002;22;20008;-48
2021/08/10 10:43:27;;;;;;;3.78;2.17;;;;;;;23.27;nan;101722.84;6265347;22;20011;-47
2021/08/10 10:45:54;;;;;;;6.57;2.40;;;;;;;23.63;nan;101711.06;6266162;22;20074;-47
2021/08/10 10:48:25;;;;;;;3.20;2.67;;;;;;;23.97;nan;101708.50;6265350;22;20003;-48
2021/08/10 10:51:10;;;;;;;4.22;2.50;;;;;;;24.14;nan;101702.28;6263260;22;20003;-50
2021/08/10 10:53:36;;;;;;;4.15;2.72;;;;;;;24.04;nan;101713.50;6264259;22;20018;-48
2021/08/10 10:56:02;;;;;;;3.80;2.55;;;;;;;24.07;nan;101701.97;6265179;22;20343;-49
2021/08/10 10:58:33;;;;;;;4.25;2.20;;;;;;;24.08;nan;101703.56;6265061;22;20003;-49
2021/08/10 11:01:18;;;;;;;3.20;2.33;;;;;;;23.98;nan;101701.09;6265560;22;20008;-49
2021/08/10 11:04:02;;;;;;;5.15;2.90;;;;;;;24.01;nan;101700.47;6265744;22;20034;-49
2021/08/10 11:06:32;;;;;;;4.50;3.00;;;;;;;24.47;nan;101699.22;6263811;22;20050;-48
2021/08/10 11:08:59;;;;;;;3.92;2.63;;;;;;;25.08;nan;101683.66;6265647;22;20011;-48
2021/08/10 11:11:43;;;;;;;5.05;3.17;;;;;;;25.75;nan;101681.13;6258489;22;20015;-50
2021/08/10 11:14:36;;;;;;;3.28;2.15;;;;;;;26.07;nan;101678.91;6263352;22;20003;-52
2021/08/10 11:17:08;;;;;;;6.57;2.00;;;;;;;25.85;nan;101679.97;6264087;22;20337;-48
2021/08/10 11:19:34;;;;;;;2.17;1.70;;;;;;;25.72;nan;101678.25;6265411;22;20201;-52
2021/08/10 11:22:26;;;;;;;2.90;1.83;;;;;;;25.47;nan;101677.13;6264127;22;20081;-48
2021/08/10 11:24:59;;;;;;;2.30;1.50;;;;;;;24.80;nan;101675.72;6259869;22;20537;-50
2021/08/10 11:27:44;;;;;;;7.03;2.00;;;;;;;24.82;nan;101678.16;6265597;22;20057;-51
2021/08/10 11:30:25;;;;;;;3.90;2.38;;;;;;;25.22;nan;101676.06;6263428;22;20008;-51
2021/08/10 11:32:51;;;;;;;3.95;1.92;;;;;;;25.58;nan;101664.69;6263977;22;20075;-47
2021/08/10 11:35:38;;;;;;;2.58;1.50;;;;;;;25.04;nan;101671.72;6263607;22;20000;-47
2021/08/10 11:38:09;;;;;;;4.35;1.50;;;;;;;25.26;nan;101657.81;6264943;22;20443;-48
2021/08/10 11:41:02;;;;;;;3.20;1.80;;;;;;;25.35;nan;101655.88;6258024;22;20301;-49
2021/08/10 11:43:54;;;;;;;3.72;1.95;;;;;;;25.86;nan;101651.41;6263782;22;20091;-50
2021/08/10 11:46:29;;;;;;;4.90;2.25;;;;;;;25.20;nan;101634.44;6263343;22;20000;-49
2021/08/10 11:49:06;;;;;;;4.40;2.13;;;;;;;24.85;nan;101645.41;6264119;22;20007;-49